sensor_id;sensor_type;location;lat;lon;timestamp;temperature;humidity
12901;DHT22;6518;50.930;5.344;2024-02-26T00:02:01;8.00;99.90
12901;DHT22;6518;50.930;5.344;2024-02-26T00:04:29;8.00;99.90
12901;DHT22;6518;50.930;5.344;2024-02-26T00:06:56;7.90;99.90
12901;DHT22;6518;50.930;5.344;2024-02-26T00:09:23;7.90;99.90
12901;DHT22;6518;50.930;5.344;2024-02-26T00:11:50;7.90;99.90
12901;DHT22;6518;50.930;5.344;2024-02-26T00:14:17;7.90;99.90
12901;DHT22;6518;50.930;5.344;2024-02-26T00:16:44;7.80;99.90
12901;DHT22;6518;50.930;5.344;2024-02-26T00:19:11;7.80;99.90
12901;DHT22;6518;50.930;5.344;2024-02-26T00:21:41;7.70;99.90
12901;DHT22;6518;50.930;5.344;2024-02-26T00:24:08;7.70;99.90
12901;DHT22;6518;50.930;5.344;2024-02-26T00:26:35;7.70;99.90
12901;DHT22;6518;50.930;5.344;2024-02-26T00:29:02;7.70;99.90
12901;DHT22;6518;50.930;5.344;2024-02-26T00:31:29;7.70;99.90
12901;DHT22;6518;50.930;5.344;2024-02-26T00:33:55;7.60;99.90
12901;DHT22;6518;50.930;5.344;2024-02-26T00:36:22;7.60;99.90
12901;DHT22;6518;50.930;5.344;2024-02-26T00:38:51;7.60;99.90
12901;DHT22;6518;50.930;5.344;2024-02-26T00:41:18;7.50;99.90
12901;DHT22;6518;50.930;5.344;2024-02-26T00:43:44;7.50;99.90
12901;DHT22;6518;50.930;5.344;2024-02-26T00:46:11;7.50;99.90
12901;DHT22;6518;50.930;5.344;2024-02-26T00:48:38;7.50;99.90
12901;DHT22;6518;50.930;5.344;2024-02-26T00:51:05;7.50;99.90
12901;DHT22;6518;50.930;5.344;2024-02-26T00:53:33;7.50;99.90
12901;DHT22;6518;50.930;5.344;2024-02-26T00:56:00;7.50;99.90
12901;DHT22;6518;50.930;5.344;2024-02-26T00:58:27;7.50;99.90
12901;DHT22;6518;50.930;5.344;2024-02-26T01:00:54;7.40;99.90
12901;DHT22;6518;50.930;5.344;2024-02-26T01:03:21;7.40;99.90
12901;DHT22;6518;50.930;5.344;2024-02-26T01:05:48;7.40;99.90
12901;DHT22;6518;50.930;5.344;2024-02-26T01:08:15;7.40;99.90
12901;DHT22;6518;50.930;5.344;2024-02-26T01:10:42;7.40;99.90
12901;DHT22;6518;50.930;5.344;2024-02-26T01:13:10;7.40;99.90
12901;DHT22;6518;50.930;5.344;2024-02-26T01:15:37;7.40;99.90
12901;DHT22;6518;50.930;5.344;2024-02-26T01:18:04;7.40;99.90
12901;DHT22;6518;50.930;5.344;2024-02-26T01:20:31;7.30;99.90
12901;DHT22;6518;50.930;5.344;2024-02-26T01:22:58;7.30;99.90
12901;DHT22;6518;50.930;5.344;2024-02-26T01:25:24;7.30;99.90
12901;DHT22;6518;50.930;5.344;2024-02-26T01:27:51;7.30;99.90
12901;DHT22;6518;50.930;5.344;2024-02-26T01:30:20;7.30;99.90
12901;DHT22;6518;50.930;5.344;2024-02-26T01:32:46;7.30;99.90
12901;DHT22;6518;50.930;5.344;2024-02-26T01:35:14;7.30;99.90
12901;DHT22;6518;50.930;5.344;2024-02-26T01:37:41;7.20;99.90
12901;DHT22;6518;50.930;5.344;2024-02-26T01:40:09;7.20;99.90
12901;DHT22;6518;50.930;5.344;2024-02-26T01:42:38;7.20;99.90
12901;DHT22;6518;50.930;5.344;2024-02-26T01:45:05;7.30;99.90
12901;DHT22;6518;50.930;5.344;2024-02-26T01:47:36;7.30;99.90
12901;DHT22;6518;50.930;5.344;2024-02-26T01:50:05;7.20;99.90
12901;DHT22;6518;50.930;5.344;2024-02-26T01:52:32;7.20;99.90
12901;DHT22;6518;50.930;5.344;2024-02-26T01:54:59;7.20;99.90
12901;DHT22;6518;50.930;5.344;2024-02-26T01:57:27;7.20;99.90
12901;DHT22;6518;50.930;5.344;2024-02-26T01:59:55;7.20;99.90
12901;DHT22;6518;50.930;5.344;2024-02-26T02:02:22;7.10;99.90
12901;DHT22;6518;50.930;5.344;2024-02-26T02:04:51;7.10;99.90
12901;DHT22;6518;50.930;5.344;2024-02-26T02:07:19;7.10;99.90
12901;DHT22;6518;50.930;5.344;2024-02-26T02:09:47;7.10;99.90
12901;DHT22;6518;50.930;5.344;2024-02-26T02:12:14;7.10;99.90
12901;DHT22;6518;50.930;5.344;2024-02-26T02:14:41;7.10;99.90
12901;DHT22;6518;50.930;5.344;2024-02-26T02:17:07;7.00;99.90
12901;DHT22;6518;50.930;5.344;2024-02-26T02:19:35;7.10;99.90
12901;DHT22;6518;50.930;5.344;2024-02-26T02:22:03;7.10;99.90
12901;DHT22;6518;50.930;5.344;2024-02-26T02:24:29;7.00;99.90
12901;DHT22;6518;50.930;5.344;2024-02-26T02:26:56;7.10;99.90
12901;DHT22;6518;50.930;5.344;2024-02-26T02:29:23;7.00;99.90
12901;DHT22;6518;50.930;5.344;2024-02-26T02:31:50;7.00;99.90
12901;DHT22;6518;50.930;5.344;2024-02-26T02:34:17;7.00;99.90
12901;DHT22;6518;50.930;5.344;2024-02-26T02:36:49;7.00;99.90
12901;DHT22;6518;50.930;5.344;2024-02-26T02:39:17;6.90;99.90
12901;DHT22;6518;50.930;5.344;2024-02-26T02:41:44;6.90;99.90
12901;DHT22;6518;50.930;5.344;2024-02-26T02:44:11;6.90;99.90
12901;DHT22;6518;50.930;5.344;2024-02-26T02:46:38;7.00;99.90
12901;DHT22;6518;50.930;5.344;2024-02-26T02:49:08;6.90;99.90
12901;DHT22;6518;50.930;5.344;2024-02-26T02:51:35;6.90;99.90
12901;DHT22;6518;50.930;5.344;2024-02-26T02:54:02;6.90;99.90
12901;DHT22;6518;50.930;5.344;2024-02-26T02:56:30;6.90;99.90
12901;DHT22;6518;50.930;5.344;2024-02-26T02:58:57;6.90;99.90
12901;DHT22;6518;50.930;5.344;2024-02-26T03:01:24;6.80;99.90
12901;DHT22;6518;50.930;5.344;2024-02-26T03:03:50;6.80;99.90
12901;DHT22;6518;50.930;5.344;2024-02-26T03:06:17;6.80;99.90
12901;DHT22;6518;50.930;5.344;2024-02-26T03:08:46;6.80;99.90
12901;DHT22;6518;50.930;5.344;2024-02-26T03:11:13;6.80;99.90
12901;DHT22;6518;50.930;5.344;2024-02-26T03:13:42;6.80;99.90
12901;DHT22;6518;50.930;5.344;2024-02-26T03:16:09;6.80;99.90
12901;DHT22;6518;50.930;5.344;2024-02-26T03:18:38;6.80;99.90
12901;DHT22;6518;50.930;5.344;2024-02-26T03:21:06;6.80;99.90
12901;DHT22;6518;50.930;5.344;2024-02-26T03:23:33;6.70;99.90
12901;DHT22;6518;50.930;5.344;2024-02-26T03:26:02;6.70;99.90
12901;DHT22;6518;50.930;5.344;2024-02-26T03:28:30;6.70;99.90
12901;DHT22;6518;50.930;5.344;2024-02-26T03:31:00;6.80;99.90
12901;DHT22;6518;50.930;5.344;2024-02-26T03:33:27;6.80;99.90
12901;DHT22;6518;50.930;5.344;2024-02-26T03:35:54;6.70;99.90
12901;DHT22;6518;50.930;5.344;2024-02-26T03:38:21;6.80;99.90
12901;DHT22;6518;50.930;5.344;2024-02-26T03:40:48;6.80;99.90
12901;DHT22;6518;50.930;5.344;2024-02-26T03:43:16;6.80;99.90
12901;DHT22;6518;50.930;5.344;2024-02-26T03:45:43;6.80;99.90
12901;DHT22;6518;50.930;5.344;2024-02-26T03:48:11;6.80;99.90
12901;DHT22;6518;50.930;5.344;2024-02-26T03:50:38;6.70;99.90
12901;DHT22;6518;50.930;5.344;2024-02-26T03:53:05;6.70;99.90
12901;DHT22;6518;50.930;5.344;2024-02-26T03:55:34;6.70;99.90
12901;DHT22;6518;50.930;5.344;2024-02-26T03:58:01;6.70;99.90
12901;DHT22;6518;50.930;5.344;2024-02-26T04:00:28;6.70;99.90
12901;DHT22;6518;50.930;5.344;2024-02-26T04:02:56;6.70;99.90
12901;DHT22;6518;50.930;5.344;2024-02-26T04:05:24;6.70;99.90
12901;DHT22;6518;50.930;5.344;2024-02-26T04:07:51;6.70;99.90
12901;DHT22;6518;50.930;5.344;2024-02-26T04:10:18;6.70;99.90
12901;DHT22;6518;50.930;5.344;2024-02-26T04:12:44;6.80;99.90
12901;DHT22;6518;50.930;5.344;2024-02-26T04:15:12;6.80;99.90
12901;DHT22;6518;50.930;5.344;2024-02-26T04:17:40;6.70;99.90
12901;DHT22;6518;50.930;5.344;2024-02-26T04:20:12;6.70;99.90
12901;DHT22;6518;50.930;5.344;2024-02-26T04:22:40;6.70;99.90
12901;DHT22;6518;50.930;5.344;2024-02-26T04:25:08;6.70;99.90
12901;DHT22;6518;50.930;5.344;2024-02-26T04:27:35;6.70;99.90
12901;DHT22;6518;50.930;5.344;2024-02-26T04:30:02;6.70;99.90
12901;DHT22;6518;50.930;5.344;2024-02-26T04:32:30;6.70;99.90
12901;DHT22;6518;50.930;5.344;2024-02-26T04:34:57;6.70;99.90
12901;DHT22;6518;50.930;5.344;2024-02-26T04:37:26;6.70;99.90
12901;DHT22;6518;50.930;5.344;2024-02-26T04:39:58;6.70;99.90
12901;DHT22;6518;50.930;5.344;2024-02-26T04:42:25;6.70;99.90
12901;DHT22;6518;50.930;5.344;2024-02-26T04:44:52;6.70;99.90
12901;DHT22;6518;50.930;5.344;2024-02-26T04:47:19;6.70;99.90
12901;DHT22;6518;50.930;5.344;2024-02-26T04:49:48;6.70;99.90
12901;DHT22;6518;50.930;5.344;2024-02-26T04:52:15;6.70;99.90
12901;DHT22;6518;50.930;5.344;2024-02-26T04:54:42;6.70;99.90
12901;DHT22;6518;50.930;5.344;2024-02-26T04:57:10;6.70;99.90
12901;DHT22;6518;50.930;5.344;2024-02-26T04:59:37;6.70;99.90
12901;DHT22;6518;50.930;5.344;2024-02-26T05:02:06;6.70;99.90
12901;DHT22;6518;50.930;5.344;2024-02-26T05:04:33;6.70;99.90
12901;DHT22;6518;50.930;5.344;2024-02-26T05:06:59;6.70;99.90
12901;DHT22;6518;50.930;5.344;2024-02-26T05:09:26;6.70;99.90
12901;DHT22;6518;50.930;5.344;2024-02-26T05:11:53;6.70;99.90
12901;DHT22;6518;50.930;5.344;2024-02-26T05:14:22;6.60;99.90
12901;DHT22;6518;50.930;5.344;2024-02-26T05:16:49;6.70;99.90
12901;DHT22;6518;50.930;5.344;2024-02-26T05:19:16;6.60;99.90
12901;DHT22;6518;50.930;5.344;2024-02-26T05:21:42;6.70;99.90
12901;DHT22;6518;50.930;5.344;2024-02-26T05:24:10;6.60;99.90
12901;DHT22;6518;50.930;5.344;2024-02-26T05:26:37;6.70;99.90
12901;DHT22;6518;50.930;5.344;2024-02-26T05:29:04;6.70;99.90
12901;DHT22;6518;50.930;5.344;2024-02-26T05:31:32;6.70;99.90
12901;DHT22;6518;50.930;5.344;2024-02-26T05:33:59;6.70;99.90
12901;DHT22;6518;50.930;5.344;2024-02-26T05:36:26;6.70;99.90
12901;DHT22;6518;50.930;5.344;2024-02-26T05:38:58;6.60;99.90
12901;DHT22;6518;50.930;5.344;2024-02-26T05:41:25;6.60;99.90
12901;DHT22;6518;50.930;5.344;2024-02-26T05:43:52;6.60;99.90
12901;DHT22;6518;50.930;5.344;2024-02-26T05:46:20;6.70;99.90
12901;DHT22;6518;50.930;5.344;2024-02-26T05:48:50;6.70;99.90
12901;DHT22;6518;50.930;5.344;2024-02-26T05:51:17;6.70;99.90
12901;DHT22;6518;50.930;5.344;2024-02-26T05:53:44;6.70;99.90
12901;DHT22;6518;50.930;5.344;2024-02-26T05:56:12;6.60;99.90
12901;DHT22;6518;50.930;5.344;2024-02-26T05:58:39;6.70;99.90
12901;DHT22;6518;50.930;5.344;2024-02-26T06:01:06;6.70;99.90
12901;DHT22;6518;50.930;5.344;2024-02-26T06:03:33;6.70;99.90
12901;DHT22;6518;50.930;5.344;2024-02-26T06:06:01;6.60;99.90
12901;DHT22;6518;50.930;5.344;2024-02-26T06:08:28;6.60;99.90
12901;DHT22;6518;50.930;5.344;2024-02-26T06:10:55;6.60;99.90
12901;DHT22;6518;50.930;5.344;2024-02-26T06:13:22;6.60;99.90
12901;DHT22;6518;50.930;5.344;2024-02-26T06:15:49;6.60;99.90
12901;DHT22;6518;50.930;5.344;2024-02-26T06:18:16;6.50;99.90
12901;DHT22;6518;50.930;5.344;2024-02-26T06:20:43;6.50;99.90
12901;DHT22;6518;50.930;5.344;2024-02-26T06:23:13;6.50;99.90
12901;DHT22;6518;50.930;5.344;2024-02-26T06:25:40;6.50;99.90
12901;DHT22;6518;50.930;5.344;2024-02-26T06:28:08;6.50;99.90
12901;DHT22;6518;50.930;5.344;2024-02-26T06:30:35;6.40;99.90
12901;DHT22;6518;50.930;5.344;2024-02-26T06:33:01;6.40;99.90
12901;DHT22;6518;50.930;5.344;2024-02-26T06:35:29;6.50;99.90
12901;DHT22;6518;50.930;5.344;2024-02-26T06:37:55;6.50;99.90
12901;DHT22;6518;50.930;5.344;2024-02-26T06:40:24;6.50;99.90
12901;DHT22;6518;50.930;5.344;2024-02-26T06:42:50;6.50;99.90
12901;DHT22;6518;50.930;5.344;2024-02-26T06:45:17;6.50;99.90
12901;DHT22;6518;50.930;5.344;2024-02-26T06:47:45;6.40;99.90
12901;DHT22;6518;50.930;5.344;2024-02-26T06:50:12;6.40;99.90
12901;DHT22;6518;50.930;5.344;2024-02-26T06:52:39;6.40;99.90
12901;DHT22;6518;50.930;5.344;2024-02-26T06:55:07;6.40;99.90
12901;DHT22;6518;50.930;5.344;2024-02-26T06:57:35;6.40;99.90
12901;DHT22;6518;50.930;5.344;2024-02-26T07:00:02;6.40;99.90
12901;DHT22;6518;50.930;5.344;2024-02-26T07:02:30;6.40;99.90
12901;DHT22;6518;50.930;5.344;2024-02-26T07:04:57;6.40;99.90
12901;DHT22;6518;50.930;5.344;2024-02-26T07:07:24;6.40;99.90
12901;DHT22;6518;50.930;5.344;2024-02-26T07:09:51;6.40;99.90
12901;DHT22;6518;50.930;5.344;2024-02-26T07:12:18;6.30;99.90
12901;DHT22;6518;50.930;5.344;2024-02-26T07:14:48;6.40;99.90
12901;DHT22;6518;50.930;5.344;2024-02-26T07:17:16;6.40;99.90
12901;DHT22;6518;50.930;5.344;2024-02-26T07:19:43;6.40;99.90
12901;DHT22;6518;50.930;5.344;2024-02-26T07:22:10;6.40;99.90
12901;DHT22;6518;50.930;5.344;2024-02-26T07:24:36;6.40;99.90
12901;DHT22;6518;50.930;5.344;2024-02-26T07:27:04;6.40;99.90
12901;DHT22;6518;50.930;5.344;2024-02-26T07:29:31;6.40;99.90
12901;DHT22;6518;50.930;5.344;2024-02-26T07:31:59;6.40;99.90
12901;DHT22;6518;50.930;5.344;2024-02-26T07:34:26;6.40;99.90
12901;DHT22;6518;50.930;5.344;2024-02-26T07:36:55;6.40;99.90
12901;DHT22;6518;50.930;5.344;2024-02-26T07:39:22;6.40;99.90
12901;DHT22;6518;50.930;5.344;2024-02-26T07:41:48;6.40;99.90
12901;DHT22;6518;50.930;5.344;2024-02-26T07:44:18;6.40;99.90
12901;DHT22;6518;50.930;5.344;2024-02-26T07:46:45;6.40;99.90
12901;DHT22;6518;50.930;5.344;2024-02-26T07:49:13;6.50;99.90
12901;DHT22;6518;50.930;5.344;2024-02-26T07:51:40;6.50;99.90
12901;DHT22;6518;50.930;5.344;2024-02-26T07:54:07;6.50;99.90
12901;DHT22;6518;50.930;5.344;2024-02-26T07:56:34;6.50;99.90
12901;DHT22;6518;50.930;5.344;2024-02-26T07:59:01;6.50;99.90
12901;DHT22;6518;50.930;5.344;2024-02-26T08:01:28;6.50;99.90
12901;DHT22;6518;50.930;5.344;2024-02-26T08:03:55;6.50;99.90
12901;DHT22;6518;50.930;5.344;2024-02-26T08:06:23;6.50;99.90
12901;DHT22;6518;50.930;5.344;2024-02-26T08:08:51;6.50;99.90
12901;DHT22;6518;50.930;5.344;2024-02-26T08:11:18;6.50;99.90
12901;DHT22;6518;50.930;5.344;2024-02-26T08:13:44;6.40;99.90
12901;DHT22;6518;50.930;5.344;2024-02-26T08:16:11;6.40;99.90
12901;DHT22;6518;50.930;5.344;2024-02-26T08:18:38;6.40;99.90
12901;DHT22;6518;50.930;5.344;2024-02-26T08:21:05;6.40;99.90
12901;DHT22;6518;50.930;5.344;2024-02-26T08:23:35;6.40;99.90
12901;DHT22;6518;50.930;5.344;2024-02-26T08:26:02;6.40;99.90
12901;DHT22;6518;50.930;5.344;2024-02-26T08:28:29;6.40;99.90
12901;DHT22;6518;50.930;5.344;2024-02-26T08:30:56;6.40;99.90
12901;DHT22;6518;50.930;5.344;2024-02-26T08:33:24;6.40;99.90
12901;DHT22;6518;50.930;5.344;2024-02-26T08:35:51;6.50;99.90
12901;DHT22;6518;50.930;5.344;2024-02-26T08:38:18;6.50;99.90
12901;DHT22;6518;50.930;5.344;2024-02-26T08:40:46;6.50;99.90
12901;DHT22;6518;50.930;5.344;2024-02-26T08:43:13;6.50;99.90
12901;DHT22;6518;50.930;5.344;2024-02-26T08:45:40;6.50;99.90
12901;DHT22;6518;50.930;5.344;2024-02-26T08:48:07;6.50;99.90
12901;DHT22;6518;50.930;5.344;2024-02-26T08:50:34;6.50;99.90
12901;DHT22;6518;50.930;5.344;2024-02-26T08:53:01;6.50;99.90
12901;DHT22;6518;50.930;5.344;2024-02-26T08:55:29;6.50;99.90
12901;DHT22;6518;50.930;5.344;2024-02-26T08:57:58;6.50;99.90
12901;DHT22;6518;50.930;5.344;2024-02-26T09:00:24;6.50;99.90
12901;DHT22;6518;50.930;5.344;2024-02-26T09:02:51;6.50;99.90
12901;DHT22;6518;50.930;5.344;2024-02-26T09:05:18;6.50;99.90
12901;DHT22;6518;50.930;5.344;2024-02-26T09:07:45;6.50;99.90
12901;DHT22;6518;50.930;5.344;2024-02-26T09:10:13;6.50;99.90
12901;DHT22;6518;50.930;5.344;2024-02-26T09:12:40;6.50;99.90
12901;DHT22;6518;50.930;5.344;2024-02-26T09:15:09;6.50;99.90
12901;DHT22;6518;50.930;5.344;2024-02-26T09:17:36;6.50;99.90
12901;DHT22;6518;50.930;5.344;2024-02-26T09:20:03;6.50;99.90
12901;DHT22;6518;50.930;5.344;2024-02-26T09:22:31;6.50;99.90
12901;DHT22;6518;50.930;5.344;2024-02-26T09:24:58;6.50;99.90
12901;DHT22;6518;50.930;5.344;2024-02-26T09:27:25;6.60;99.90
12901;DHT22;6518;50.930;5.344;2024-02-26T09:29:51;6.60;99.90
12901;DHT22;6518;50.930;5.344;2024-02-26T09:32:20;6.60;99.90
12901;DHT22;6518;50.930;5.344;2024-02-26T09:34:47;6.60;99.90
12901;DHT22;6518;50.930;5.344;2024-02-26T09:37:13;6.60;99.90
12901;DHT22;6518;50.930;5.344;2024-02-26T09:39:40;6.60;99.90
12901;DHT22;6518;50.930;5.344;2024-02-26T09:42:09;6.60;99.90
12901;DHT22;6518;50.930;5.344;2024-02-26T09:44:39;6.60;99.90
12901;DHT22;6518;50.930;5.344;2024-02-26T09:47:10;6.70;99.90
12901;DHT22;6518;50.930;5.344;2024-02-26T09:49:40;6.60;99.90
12901;DHT22;6518;50.930;5.344;2024-02-26T09:52:08;6.70;99.90
12901;DHT22;6518;50.930;5.344;2024-02-26T09:54:35;6.60;99.90
12901;DHT22;6518;50.930;5.344;2024-02-26T09:57:03;6.70;99.90
12901;DHT22;6518;50.930;5.344;2024-02-26T09:59:40;6.70;99.90
12901;DHT22;6518;50.930;5.344;2024-02-26T10:02:11;6.70;99.90
12901;DHT22;6518;50.930;5.344;2024-02-26T10:04:41;6.80;99.90
12901;DHT22;6518;50.930;5.344;2024-02-26T10:07:11;6.80;99.90
12901;DHT22;6518;50.930;5.344;2024-02-26T10:09:38;6.80;99.90
12901;DHT22;6518;50.930;5.344;2024-02-26T10:12:10;6.80;99.90
12901;DHT22;6518;50.930;5.344;2024-02-26T10:14:37;6.90;99.90
12901;DHT22;6518;50.930;5.344;2024-02-26T10:17:07;6.40;99.90
12901;DHT22;6518;50.930;5.344;2024-02-26T10:19:35;6.90;99.90
12901;DHT22;6518;50.930;5.344;2024-02-26T10:22:03;6.90;99.90
12901;DHT22;6518;50.930;5.344;2024-02-26T10:24:31;7.00;99.90
12901;DHT22;6518;50.930;5.344;2024-02-26T10:26:58;7.00;99.90
12901;DHT22;6518;50.930;5.344;2024-02-26T10:29:25;7.00;99.90
12901;DHT22;6518;50.930;5.344;2024-02-26T10:31:53;7.00;99.90
12901;DHT22;6518;50.930;5.344;2024-02-26T10:34:21;7.00;99.90
12901;DHT22;6518;50.930;5.344;2024-02-26T10:36:49;7.00;99.90
12901;DHT22;6518;50.930;5.344;2024-02-26T10:39:17;7.00;99.90
12901;DHT22;6518;50.930;5.344;2024-02-26T10:41:44;7.00;99.90
12901;DHT22;6518;50.930;5.344;2024-02-26T10:44:12;7.00;99.90
12901;DHT22;6518;50.930;5.344;2024-02-26T10:46:40;7.00;99.90
12901;DHT22;6518;50.930;5.344;2024-02-26T10:49:13;7.00;99.90
12901;DHT22;6518;50.930;5.344;2024-02-26T10:51:44;7.00;99.90
12901;DHT22;6518;50.930;5.344;2024-02-26T10:54:15;7.00;99.90
12901;DHT22;6518;50.930;5.344;2024-02-26T10:56:43;7.00;99.90
12901;DHT22;6518;50.930;5.344;2024-02-26T10:59:13;7.00;99.90
12901;DHT22;6518;50.930;5.344;2024-02-26T11:01:41;7.00;99.90
12901;DHT22;6518;50.930;5.344;2024-02-26T11:04:12;7.00;99.90
12901;DHT22;6518;50.930;5.344;2024-02-26T11:06:39;7.00;99.90
12901;DHT22;6518;50.930;5.344;2024-02-26T11:09:08;7.00;99.90
12901;DHT22;6518;50.930;5.344;2024-02-26T11:11:39;7.00;99.90
12901;DHT22;6518;50.930;5.344;2024-02-26T11:14:08;7.00;99.90
12901;DHT22;6518;50.930;5.344;2024-02-26T11:16:36;7.00;99.90
12901;DHT22;6518;50.930;5.344;2024-02-26T11:19:06;6.90;99.90
12901;DHT22;6518;50.930;5.344;2024-02-26T11:21:36;6.90;99.90
12901;DHT22;6518;50.930;5.344;2024-02-26T11:24:08;6.80;99.90
12901;DHT22;6518;50.930;5.344;2024-02-26T11:26:39;6.80;99.90
12901;DHT22;6518;50.930;5.344;2024-02-26T11:29:15;6.80;99.90
12901;DHT22;6518;50.930;5.344;2024-02-26T11:31:43;6.80;99.90
12901;DHT22;6518;50.930;5.344;2024-02-26T11:34:11;6.80;99.90
12901;DHT22;6518;50.930;5.344;2024-02-26T11:36:38;6.80;99.90
12901;DHT22;6518;50.930;5.344;2024-02-26T11:39:06;6.80;99.90
12901;DHT22;6518;50.930;5.344;2024-02-26T11:41:33;6.80;99.90
12901;DHT22;6518;50.930;5.344;2024-02-26T11:44:01;6.80;99.90
12901;DHT22;6518;50.930;5.344;2024-02-26T11:46:32;6.70;99.90
12901;DHT22;6518;50.930;5.344;2024-02-26T11:49:00;6.80;99.90
12901;DHT22;6518;50.930;5.344;2024-02-26T11:51:28;6.70;99.90
12901;DHT22;6518;50.930;5.344;2024-02-26T11:53:55;6.70;99.90
12901;DHT22;6518;50.930;5.344;2024-02-26T11:56:24;6.70;99.90
12901;DHT22;6518;50.930;5.344;2024-02-26T11:58:57;6.80;99.90
12901;DHT22;6518;50.930;5.344;2024-02-26T12:01:42;6.80;99.90
12901;DHT22;6518;50.930;5.344;2024-02-26T12:04:14;6.80;99.90
12901;DHT22;6518;50.930;5.344;2024-02-26T12:06:46;6.90;99.90
12901;DHT22;6518;50.930;5.344;2024-02-26T12:09:30;6.90;99.90
12901;DHT22;6518;50.930;5.344;2024-02-26T12:11:57;7.00;99.90
12901;DHT22;6518;50.930;5.344;2024-02-26T12:14:25;7.00;99.90
12901;DHT22;6518;50.930;5.344;2024-02-26T12:16:55;7.00;99.90
12901;DHT22;6518;50.930;5.344;2024-02-26T12:19:24;6.80;99.90
12901;DHT22;6518;50.930;5.344;2024-02-26T12:21:52;7.00;99.90
12901;DHT22;6518;50.930;5.344;2024-02-26T12:24:20;7.10;99.90
12901;DHT22;6518;50.930;5.344;2024-02-26T12:26:47;7.10;99.90
12901;DHT22;6518;50.930;5.344;2024-02-26T12:29:14;7.10;99.90
12901;DHT22;6518;50.930;5.344;2024-02-26T12:31:41;7.10;99.90
12901;DHT22;6518;50.930;5.344;2024-02-26T12:34:10;7.10;99.90
12901;DHT22;6518;50.930;5.344;2024-02-26T12:36:37;7.10;99.90
12901;DHT22;6518;50.930;5.344;2024-02-26T12:39:06;7.10;99.90
12901;DHT22;6518;50.930;5.344;2024-02-26T12:41:35;7.20;99.90
12901;DHT22;6518;50.930;5.344;2024-02-26T12:44:02;7.20;99.90
12901;DHT22;6518;50.930;5.344;2024-02-26T12:46:29;7.30;99.90
12901;DHT22;6518;50.930;5.344;2024-02-26T12:48:58;7.30;99.90
12901;DHT22;6518;50.930;5.344;2024-02-26T12:51:27;7.40;99.90
12901;DHT22;6518;50.930;5.344;2024-02-26T12:53:55;7.40;99.90
12901;DHT22;6518;50.930;5.344;2024-02-26T12:56:22;7.50;99.90
12901;DHT22;6518;50.930;5.344;2024-02-26T12:58:50;7.60;99.90
12901;DHT22;6518;50.930;5.344;2024-02-26T13:01:21;7.60;99.90
12901;DHT22;6518;50.930;5.344;2024-02-26T13:03:49;7.60;99.90
12901;DHT22;6518;50.930;5.344;2024-02-26T13:06:17;7.60;99.90
12901;DHT22;6518;50.930;5.344;2024-02-26T13:08:45;7.70;99.90
12901;DHT22;6518;50.930;5.344;2024-02-26T13:11:13;7.70;99.90
12901;DHT22;6518;50.930;5.344;2024-02-26T13:13:40;7.70;99.90
12901;DHT22;6518;50.930;5.344;2024-02-26T13:16:10;7.70;99.90
12901;DHT22;6518;50.930;5.344;2024-02-26T13:18:40;7.70;99.90
12901;DHT22;6518;50.930;5.344;2024-02-26T13:21:09;7.70;99.90
12901;DHT22;6518;50.930;5.344;2024-02-26T13:23:37;7.50;99.90
12901;DHT22;6518;50.930;5.344;2024-02-26T13:26:06;7.60;99.90
12901;DHT22;6518;50.930;5.344;2024-02-26T13:28:34;7.50;99.90
12901;DHT22;6518;50.930;5.344;2024-02-26T13:31:01;7.50;99.90
12901;DHT22;6518;50.930;5.344;2024-02-26T13:33:30;7.40;99.90
12901;DHT22;6518;50.930;5.344;2024-02-26T13:35:58;7.40;99.90
12901;DHT22;6518;50.930;5.344;2024-02-26T13:38:25;7.40;99.90
12901;DHT22;6518;50.930;5.344;2024-02-26T13:40:54;7.30;99.90
12901;DHT22;6518;50.930;5.344;2024-02-26T13:43:22;7.30;99.90
12901;DHT22;6518;50.930;5.344;2024-02-26T13:45:49;7.30;99.90
12901;DHT22;6518;50.930;5.344;2024-02-26T13:48:16;7.40;99.90
12901;DHT22;6518;50.930;5.344;2024-02-26T13:50:43;7.30;99.90
12901;DHT22;6518;50.930;5.344;2024-02-26T13:53:11;7.20;99.90
12901;DHT22;6518;50.930;5.344;2024-02-26T13:55:39;7.20;99.90
12901;DHT22;6518;50.930;5.344;2024-02-26T13:58:08;7.10;99.90
12901;DHT22;6518;50.930;5.344;2024-02-26T14:00:39;7.10;99.90
12901;DHT22;6518;50.930;5.344;2024-02-26T14:03:07;7.10;99.90
12901;DHT22;6518;50.930;5.344;2024-02-26T14:05:33;7.10;99.90
12901;DHT22;6518;50.930;5.344;2024-02-26T14:08:00;7.10;99.90
12901;DHT22;6518;50.930;5.344;2024-02-26T14:10:28;7.10;99.90
12901;DHT22;6518;50.930;5.344;2024-02-26T14:12:56;7.00;99.90
12901;DHT22;6518;50.930;5.344;2024-02-26T14:15:22;7.00;99.90
12901;DHT22;6518;50.930;5.344;2024-02-26T14:17:52;6.90;99.90
12901;DHT22;6518;50.930;5.344;2024-02-26T14:20:22;6.90;99.90
12901;DHT22;6518;50.930;5.344;2024-02-26T14:22:49;6.90;99.90
12901;DHT22;6518;50.930;5.344;2024-02-26T14:25:16;6.90;99.90
12901;DHT22;6518;50.930;5.344;2024-02-26T14:27:43;6.90;99.90
12901;DHT22;6518;50.930;5.344;2024-02-26T14:30:11;7.00;99.90
12901;DHT22;6518;50.930;5.344;2024-02-26T14:32:38;7.00;99.90
12901;DHT22;6518;50.930;5.344;2024-02-26T14:35:08;7.00;99.90
12901;DHT22;6518;50.930;5.344;2024-02-26T14:37:35;7.30;99.90
12901;DHT22;6518;50.930;5.344;2024-02-26T14:40:03;6.90;99.90
12901;DHT22;6518;50.930;5.344;2024-02-26T14:42:31;6.90;99.90
12901;DHT22;6518;50.930;5.344;2024-02-26T14:44:57;6.90;99.90
12901;DHT22;6518;50.930;5.344;2024-02-26T14:47:25;7.00;99.90
12901;DHT22;6518;50.930;5.344;2024-02-26T14:49:52;7.00;99.90
12901;DHT22;6518;50.930;5.344;2024-02-26T14:52:21;7.10;99.90
12901;DHT22;6518;50.930;5.344;2024-02-26T14:54:48;7.10;99.90
12901;DHT22;6518;50.930;5.344;2024-02-26T14:57:17;7.10;99.90
12901;DHT22;6518;50.930;5.344;2024-02-26T14:59:44;7.10;99.90
12901;DHT22;6518;50.930;5.344;2024-02-26T15:02:11;7.10;99.90
12901;DHT22;6518;50.930;5.344;2024-02-26T15:04:38;7.10;99.90
12901;DHT22;6518;50.930;5.344;2024-02-26T15:07:05;7.10;99.90
12901;DHT22;6518;50.930;5.344;2024-02-26T15:09:33;7.10;99.90
12901;DHT22;6518;50.930;5.344;2024-02-26T15:12:01;7.10;99.90
12901;DHT22;6518;50.930;5.344;2024-02-26T15:14:28;7.10;99.90
12901;DHT22;6518;50.930;5.344;2024-02-26T15:16:55;7.10;99.90
12901;DHT22;6518;50.930;5.344;2024-02-26T15:19:22;7.10;99.90
12901;DHT22;6518;50.930;5.344;2024-02-26T15:21:49;6.70;99.90
12901;DHT22;6518;50.930;5.344;2024-02-26T15:24:16;7.00;99.90
12901;DHT22;6518;50.930;5.344;2024-02-26T15:26:44;7.00;99.90
12901;DHT22;6518;50.930;5.344;2024-02-26T15:29:11;7.00;99.90
12901;DHT22;6518;50.930;5.344;2024-02-26T15:31:39;7.00;99.90
12901;DHT22;6518;50.930;5.344;2024-02-26T15:34:05;7.00;99.90
12901;DHT22;6518;50.930;5.344;2024-02-26T15:36:34;7.00;99.90
12901;DHT22;6518;50.930;5.344;2024-02-26T15:39:01;7.00;99.90
12901;DHT22;6518;50.930;5.344;2024-02-26T15:41:28;6.90;99.90
12901;DHT22;6518;50.930;5.344;2024-02-26T15:43:57;6.90;99.90
12901;DHT22;6518;50.930;5.344;2024-02-26T15:46:26;6.90;99.90
12901;DHT22;6518;50.930;5.344;2024-02-26T15:48:53;6.90;99.90
12901;DHT22;6518;50.930;5.344;2024-02-26T15:51:21;6.90;99.90
12901;DHT22;6518;50.930;5.344;2024-02-26T15:53:49;6.90;99.90
12901;DHT22;6518;50.930;5.344;2024-02-26T15:56:17;6.90;99.90
12901;DHT22;6518;50.930;5.344;2024-02-26T15:58:44;6.90;99.90
12901;DHT22;6518;50.930;5.344;2024-02-26T16:01:12;6.80;99.90
12901;DHT22;6518;50.930;5.344;2024-02-26T16:03:39;6.80;99.90
12901;DHT22;6518;50.930;5.344;2024-02-26T16:06:08;6.80;99.90